Terminal Aerodrome Forecast
Issued by NWS Twin Cities, MN

Home | Current Version | Previous Version | Text Only | Print | Product List | Glossary Off
Versions: 1 2 3 4 5 6 7 8 9 10 11 12 13 14 15 16 17 18 19 20 21 22 23 24 25 26 27

843
FTUS43 KMPX 040540
TAFMSP
TAF
KMSP 040540Z 0406/0512 22004KT P6SM FEW300
     FM040800 19005KT P6SM OVC050
     FM041300 20005KT 3SM -SN BR OVC020
      TEMPO 0414/0417 3/4SM -SN BR OVC008
     FM041800 28008KT P6SM OVC020
     FM050100 29004KT P6SM FEW025=

USA.gov is the U.S. government's official web portal to all federal, state and local government web resources and services.